Time;durP1;ratioP1;P1;durP2;ratioP2;P2;SDS_P1;SDS_P2;PMS_P1;PMS_P2;Temp;Humidity;BMP_temperature;BMP_pressure;BME280_temperature;BME280_humidity;BME280_pressure;Samples;Min_cycle;Max_cycle;Signal;HPM_P1;HPM_P2
2021/07/19 00:01:53;;;;;;;24.90;23.40;;;20.70;82.20;;;;;;4992706;28;20575;-71
2021/07/19 00:04:20;;;;;;;23.90;22.70;;;20.60;82.10;;;;;;4990182;28;20464;-71
2021/07/19 00:06:47;;;;;;;25.40;24.00;;;20.60;82.30;;;;;;4991990;28;20477;-71
2021/07/19 00:09:15;;;;;;;25.40;23.70;;;20.50;82.40;;;;;;4991501;28;20454;-73
2021/07/19 00:11:42;;;;;;;24.67;22.83;;;20.40;82.70;;;;;;4992328;28;20477;-71
2021/07/19 00:14:11;;;;;;;25.30;23.63;;;20.50;82.60;;;;;;4991407;28;20824;-71
2021/07/19 00:16:38;;;;;;;24.60;23.17;;;20.40;82.70;;;;;;4990867;28;20863;-71
2021/07/19 00:19:05;;;;;;;24.60;23.17;;;20.40;82.80;;;;;;4990764;28;20459;-71
2021/07/19 00:21:32;;;;;;;24.23;22.80;;;20.40;82.80;;;;;;4991285;28;21017;-71
2021/07/19 00:23:59;;;;;;;24.70;22.90;;;20.40;82.70;;;;;;4991902;28;20454;-71
2021/07/19 00:26:26;;;;;;;24.50;23.10;;;20.30;83.00;;;;;;4991352;28;20493;-71
2021/07/19 00:28:53;;;;;;;23.00;21.80;;;20.20;83.30;;;;;;4991828;28;20466;-70
2021/07/19 00:31:21;;;;;;;24.03;22.63;;;20.20;83.20;;;;;;4990627;28;20473;-71
2021/07/19 00:33:49;;;;;;;24.03;22.63;;;20.20;83.20;;;;;;4991152;28;20943;-71
2021/07/19 00:36:16;;;;;;;24.33;23.03;;;20.00;83.80;;;;;;4988762;28;20477;-70
2021/07/19 00:38:43;;;;;;;24.93;23.23;;;20.00;84.00;;;;;;4995557;28;20465;-71
2021/07/19 00:41:11;;;;;;;23.80;22.50;;;20.00;83.80;;;;;;4994536;28;20464;-71
2021/07/19 00:43:38;;;;;;;25.50;23.90;;;19.90;84.10;;;;;;4991264;28;20469;-70
2021/07/19 00:46:05;;;;;;;23.93;22.50;;;19.90;84.00;;;;;;4989641;28;21267;-70
2021/07/19 00:48:33;;;;;;;25.10;23.20;;;19.90;84.00;;;;;;4990204;28;20489;-70
2021/07/19 00:51:00;;;;;;;24.90;23.27;;;19.90;84.10;;;;;;4990073;28;20548;-70
2021/07/19 00:53:27;;;;;;;24.47;23.17;;;19.90;84.30;;;;;;4990733;28;20831;-70
2021/07/19 00:55:56;;;;;;;25.23;23.37;;;19.80;84.30;;;;;;4990677;28;20508;-70
2021/07/19 00:58:28;;;;;;;23.53;22.20;;;19.80;84.50;;;;;;4993646;28;20988;-70
2021/07/19 01:00:56;;;;;;;23.90;22.50;;;19.80;84.50;;;;;;4990144;28;20490;-70
2021/07/19 01:03:25;;;;;;;23.70;22.30;;;19.70;84.50;;;;;;4989117;28;20797;-70
2021/07/19 01:05:55;;;;;;;23.90;22.27;;;19.70;84.40;;;;;;4990346;28;20474;-70
2021/07/19 01:08:23;;;;;;;22.90;21.60;;;19.70;84.60;;;;;;4988236;28;20462;-70
2021/07/19 01:10:50;;;;;;;23.93;22.43;;;19.60;85.00;;;;;;4990218;28;20489;-70
2021/07/19 01:13:17;;;;;;;23.87;22.40;;;19.50;85.20;;;;;;4989302;28;20882;-70
2021/07/19 01:15:44;;;;;;;23.50;22.10;;;19.50;85.20;;;;;;4989172;28;20481;-70
2021/07/19 01:18:12;;;;;;;24.00;22.40;;;19.50;85.40;;;;;;4985278;28;20827;-70
2021/07/19 01:20:52;;;;;;;23.67;22.27;;;19.50;85.50;;;;;;4990373;28;20954;-70
2021/07/19 01:23:54;;;;;;;23.40;22.00;;;19.40;85.40;;;;;;4987189;28;20446;-70
2021/07/19 01:26:40;;;;;;;23.57;22.13;;;19.40;85.50;;;;;;4989021;28;20503;-70
2021/07/19 01:29:09;;;;;;;23.37;21.97;;;19.30;85.80;;;;;;4989898;28;20955;-70
2021/07/19 01:31:38;;;;;;;23.40;21.80;;;19.20;86.10;;;;;;4990628;28;20868;-70
2021/07/19 01:34:08;;;;;;;23.70;22.07;;;19.20;86.00;;;;;;4984500;28;20572;-70
2021/07/19 01:36:37;;;;;;;23.73;22.20;;;19.20;85.90;;;;;;4997181;28;20837;-70
2021/07/19 01:39:07;;;;;;;23.80;22.20;;;19.30;85.70;;;;;;4990519;28;20458;-70
2021/07/19 01:41:35;;;;;;;24.00;22.60;;;19.20;85.80;;;;;;4990626;28;20932;-70
2021/07/19 01:44:03;;;;;;;24.10;22.40;;;19.20;85.70;;;;;;4987943;28;20473;-70
2021/07/19 01:46:32;;;;;;;23.97;22.67;;;19.20;85.80;;;;;;4989862;28;20472;-70
2021/07/19 01:48:59;;;;;;;23.90;22.43;;;19.20;85.80;;;;;;4990053;28;20458;-70
2021/07/19 01:51:27;;;;;;;23.07;21.77;;;19.10;85.90;;;;;;4988844;28;20492;-70
2021/07/19 01:53:55;;;;;;;23.33;22.03;;;19.10;85.90;;;;;;4988882;28;22507;-70
2021/07/19 01:56:23;;;;;;;22.50;21.10;;;19.10;86.00;;;;;;4989063;28;20481;-70
2021/07/19 01:58:50;;;;;;;22.90;21.40;;;19.00;86.00;;;;;;4991128;28;20460;-70
2021/07/19 02:01:18;;;;;;;22.67;21.37;;;19.00;86.30;;;;;;4987221;28;21080;-70
2021/07/19 02:03:46;;;;;;;22.53;20.90;;;18.90;86.60;;;;;;4989070;28;20466;-70
2021/07/19 02:06:15;;;;;;;22.10;20.90;;;18.90;86.80;;;;;;4988389;28;20481;-70
2021/07/19 02:08:46;;;;;;;24.60;22.50;;;18.80;86.80;;;;;;4990031;28;20461;-70
2021/07/19 02:11:15;;;;;;;23.20;21.90;;;18.80;86.80;;;;;;4986482;28;20492;-70
2021/07/19 02:13:44;;;;;;;23.43;22.13;;;18.80;86.90;;;;;;4987465;28;20461;-70
2021/07/19 02:16:12;;;;;;;22.57;21.23;;;18.80;86.90;;;;;;4985900;28;20473;-70
2021/07/19 02:18:42;;;;;;;23.40;21.87;;;18.80;87.00;;;;;;4988628;28;20462;-70
2021/07/19 02:21:10;;;;;;;22.90;21.40;;;18.80;87.00;;;;;;4988742;28;20454;-70
2021/07/19 02:23:39;;;;;;;23.43;21.93;;;18.80;86.80;;;;;;4987926;28;20548;-70
2021/07/19 02:26:07;;;;;;;23.83;22.50;;;18.70;87.00;;;;;;4987966;28;20532;-70
2021/07/19 02:28:36;;;;;;;23.20;21.83;;;18.70;87.00;;;;;;4989358;28;20465;-70
2021/07/19 02:31:05;;;;;;;23.43;22.13;;;18.70;87.20;;;;;;4988752;28;20514;-70
2021/07/19 02:33:34;;;;;;;22.63;21.43;;;18.70;87.10;;;;;;4988231;28;20465;-70
2021/07/19 02:36:01;;;;;;;23.33;21.93;;;18.70;87.10;;;;;;4987831;28;20844;-70
2021/07/19 02:38:30;;;;;;;22.10;20.87;;;18.70;87.10;;;;;;4989226;28;20458;-70
2021/07/19 02:40:59;;;;;;;24.13;22.63;;;18.70;87.10;;;;;;4988646;28;20465;-70
2021/07/19 02:43:26;;;;;;;23.17;21.43;;;18.70;87.00;;;;;;4989618;28;20461;-70
2021/07/19 02:45:55;;;;;;;23.73;22.23;;;18.60;87.20;;;;;;4987729;28;20469;-70
2021/07/19 02:48:26;;;;;;;22.80;21.50;;;18.60;87.20;;;;;;4988277;28;20544;-70
2021/07/19 02:50:56;;;;;;;22.90;21.40;;;18.60;87.40;;;;;;4990224;28;20474;-70
2021/07/19 02:53:25;;;;;;;23.17;21.30;;;18.50;87.30;;;;;;4988890;28;20458;-70
2021/07/19 02:55:57;;;;;;;22.93;21.70;;;18.50;87.30;;;;;;4986314;28;20482;-70
2021/07/19 02:58:24;;;;;;;22.20;20.80;;;18.50;87.50;;;;;;4995886;28;20453;-70
2021/07/19 03:00:51;;;;;;;23.30;22.00;;;18.50;87.50;;;;;;4987409;28;20949;-70
2021/07/19 03:03:22;;;;;;;23.07;21.73;;;18.40;87.60;;;;;;4990152;28;20468;-70
2021/07/19 03:05:54;;;;;;;23.13;21.70;;;18.40;87.60;;;;;;4987570;28;20488;-70
2021/07/19 03:08:23;;;;;;;23.30;21.83;;;18.40;87.70;;;;;;4988160;28;20462;-70
2021/07/19 03:10:54;;;;;;;23.20;21.90;;;18.40;87.70;;;;;;4988905;28;20991;-70
2021/07/19 03:13:25;;;;;;;24.37;23.07;;;18.40;87.50;;;;;;4987397;28;20524;-70
2021/07/19 03:15:52;;;;;;;22.83;21.53;;;18.40;87.50;;;;;;4988207;28;20481;-70
2021/07/19 03:18:20;;;;;;;24.20;22.60;;;18.40;87.50;;;;;;4989099;28;20461;-70
2021/07/19 03:20:48;;;;;;;23.53;22.07;;;18.40;87.60;;;;;;4987751;28;20457;-70
2021/07/19 03:23:18;;;;;;;23.00;21.70;;;18.30;87.70;;;;;;4988430;28;20484;-70
2021/07/19 03:25:46;;;;;;;22.57;21.37;;;18.30;87.70;;;;;;4987706;28;20497;-70
2021/07/19 03:28:17;;;;;;;24.27;22.97;;;18.30;87.60;;;;;;4986412;28;20465;-70
2021/07/19 03:30:45;;;;;;;22.07;20.87;;;18.30;87.60;;;;;;4988598;28;20496;-70
2021/07/19 03:33:13;;;;;;;24.30;22.80;;;18.30;87.50;;;;;;4987169;28;20466;-70
2021/07/19 03:35:40;;;;;;;22.67;21.47;;;18.20;87.70;;;;;;4987718;28;20492;-70
2021/07/19 03:38:08;;;;;;;25.70;23.70;;;18.20;87.90;;;;;;4990333;28;20461;-70
2021/07/19 03:40:37;;;;;;;22.17;20.80;;;18.30;87.70;;;;;;4984081;28;20467;-70
2021/07/19 03:43:04;;;;;;;23.30;21.90;;;18.20;87.80;;;;;;4992920;28;20493;-70
2021/07/19 03:45:34;;;;;;;24.80;23.30;;;18.20;87.80;;;;;;4994733;28;20491;-70
2021/07/19 03:48:02;;;;;;;24.47;23.07;;;18.20;88.10;;;;;;4992277;28;20488;-70
2021/07/19 03:50:29;;;;;;;24.30;22.53;;;18.20;88.00;;;;;;4992542;28;20515;-70
2021/07/19 03:52:56;;;;;;;27.70;26.20;;;18.20;87.80;;;;;;4991841;28;20486;-70
2021/07/19 03:55:24;;;;;;;24.03;22.63;;;18.20;87.90;;;;;;4990222;28;20482;-70
2021/07/19 03:57:52;;;;;;;24.90;23.50;;;18.20;88.00;;;;;;4992253;28;20561;-70
2021/07/19 04:00:20;;;;;;;25.60;23.97;;;18.20;88.00;;;;;;4991641;28;20929;-70
2021/07/19 04:02:52;;;;;;;25.37;23.40;;;18.30;87.80;;;;;;4991599;28;20458;-70
2021/07/19 04:05:21;;;;;;;26.30;24.70;;;18.30;87.70;;;;;;4987796;28;20525;-70
2021/07/19 04:07:49;;;;;;;27.50;26.13;;;18.30;87.50;;;;;;4992160;28;20488;-70
2021/07/19 04:10:18;;;;;;;24.97;23.43;;;18.30;87.50;;;;;;4996340;28;20859;-69
2021/07/19 04:12:48;;;;;;;23.53;22.23;;;18.30;87.50;;;;;;4990941;28;20579;-70
2021/07/19 04:15:15;;;;;;;24.00;22.70;;;18.40;87.30;;;;;;4992185;28;20488;-70
2021/07/19 04:17:43;;;;;;;27.10;25.60;;;18.50;86.70;;;;;;4992264;28;20466;-70
2021/07/19 04:20:13;;;;;;;24.60;23.20;;;18.60;86.50;;;;;;4991364;28;20547;-70
2021/07/19 04:22:42;;;;;;;27.60;26.00;;;18.70;86.10;;;;;;4991862;28;20765;-70
2021/07/19 04:25:11;;;;;;;23.67;22.27;;;18.70;85.80;;;;;;4990805;28;20560;-70
2021/07/19 04:27:40;;;;;;;25.00;23.50;;;18.60;85.90;;;;;;4990844;28;20539;-70
2021/07/19 04:30:08;;;;;;;24.70;23.23;;;18.70;85.80;;;;;;4990244;28;20462;-70
2021/07/19 04:32:38;;;;;;;26.43;25.03;;;18.90;85.60;;;;;;4990185;28;20484;-70
2021/07/19 04:35:12;;;;;;;26.00;24.40;;;18.90;85.10;;;;;;4988639;28;20477;-70
2021/07/19 04:37:41;;;;;;;24.50;23.10;;;19.00;84.90;;;;;;4986517;28;20469;-70
2021/07/19 04:40:09;;;;;;;26.10;24.47;;;19.10;84.50;;;;;;4986805;28;20552;-70
2021/07/19 04:42:39;;;;;;;25.33;23.80;;;19.20;84.30;;;;;;4990011;28;20458;-69
2021/07/19 04:45:07;;;;;;;23.13;21.73;;;19.20;84.00;;;;;;4988895;28;20963;-70
2021/07/19 04:47:34;;;;;;;25.60;24.20;;;19.40;83.40;;;;;;4989939;28;20293;-70
2021/07/19 04:50:14;;;;;;;26.60;25.00;;;19.30;83.60;;;;;;4993563;28;20465;-70
2021/07/19 04:52:42;;;;;;;24.93;23.60;;;19.20;84.20;;;;;;4989189;28;20477;-71
2021/07/19 04:55:12;;;;;;;25.90;24.30;;;19.20;84.20;;;;;;4984523;28;20485;-71
2021/07/19 04:57:40;;;;;;;25.90;24.40;;;19.30;84.00;;;;;;4994729;28;20539;-71
2021/07/19 05:00:09;;;;;;;29.77;27.17;;;19.40;83.90;;;;;;4988261;28;20454;-71
2021/07/19 05:02:39;;;;;;;28.10;26.50;;;19.30;83.60;;;;;;4982747;28;20462;-71
2021/07/19 05:05:07;;;;;;;25.57;24.13;;;19.40;83.80;;;;;;4988763;28;20497;-72
2021/07/19 05:07:36;;;;;;;26.40;24.90;;;19.50;83.60;;;;;;4987359;28;20458;-73
2021/07/19 05:10:08;;;;;;;26.07;24.47;;;19.50;83.60;;;;;;4989448;28;20480;-73
2021/07/19 05:12:36;;;;;;;27.37;25.93;;;19.70;83.60;;;;;;4989905;28;20836;-71
2021/07/19 05:15:04;;;;;;;26.87;25.37;;;19.80;82.90;;;;;;4989357;28;20510;-72
2021/07/19 05:17:31;;;;;;;29.27;27.57;;;19.90;82.50;;;;;;4985308;28;20537;-71
2021/07/19 05:19:58;;;;;;;26.17;24.57;;;20.00;82.10;;;;;;4989456;28;20462;-71
2021/07/19 05:22:25;;;;;;;24.57;23.07;;;20.10;81.70;;;;;;4987702;28;20520;-71
2021/07/19 05:27:33;;;;;;;26.20;24.70;;;20.50;80.70;;;;;;5089638;27;20556;-71
2021/07/19 05:30:00;;;;;;;26.23;24.30;;;20.60;80.50;;;;;;5060944;28;20531;-72
2021/07/19 05:32:27;;;;;;;27.00;25.50;;;20.90;79.60;;;;;;5058412;28;20214;-72
2021/07/19 05:34:54;;;;;;;31.20;29.30;;;21.00;79.20;;;;;;5064076;28;20462;-72
2021/07/19 05:37:21;;;;;;;29.30;27.07;;;21.00;79.40;;;;;;5062904;28;20557;-72
2021/07/19 05:39:48;;;;;;;28.90;27.20;;;21.10;79.20;;;;;;5057978;28;20462;-70
2021/07/19 05:42:15;;;;;;;28.87;27.10;;;21.20;78.70;;;;;;5064494;28;20505;-72
2021/07/19 05:44:43;;;;;;;30.37;28.67;;;21.40;78.10;;;;;;5054523;28;20461;-71
2021/07/19 05:47:10;;;;;;;30.27;28.30;;;21.60;77.20;;;;;;5057150;28;20548;-74
2021/07/19 05:49:37;;;;;;;31.23;28.90;;;21.60;76.80;;;;;;5058982;28;20459;-72
2021/07/19 05:52:05;;;;;;;29.87;28.17;;;21.70;76.00;;;;;;5061921;28;20827;-72
2021/07/19 05:54:32;;;;;;;29.47;27.57;;;21.80;75.50;;;;;;5058746;28;20490;-70
2021/07/19 05:56:58;;;;;;;30.67;28.80;;;21.80;75.60;;;;;;5047701;28;20489;-72
2021/07/19 05:59:25;;;;;;;28.33;26.53;;;21.80;75.10;;;;;;5060440;28;20462;-72
2021/07/19 06:01:54;;;;;;;30.23;28.37;;;21.80;75.20;;;;;;5061133;28;20470;-72
2021/07/19 06:04:21;;;;;;;32.20;30.30;;;21.90;75.10;;;;;;5060637;28;20557;-73
2021/07/19 06:06:47;;;;;;;32.13;30.13;;;21.80;75.30;;;;;;5063877;28;20481;-72
2021/07/19 06:09:14;;;;;;;29.07;27.27;;;21.80;75.40;;;;;;5059966;28;20458;-72
2021/07/19 06:11:41;;;;;;;29.33;27.63;;;21.80;75.70;;;;;;5061235;28;20464;-72
2021/07/19 06:14:08;;;;;;;29.40;27.50;;;21.90;75.50;;;;;;5063203;28;20545;-72
2021/07/19 06:16:39;;;;;;;28.87;27.13;;;21.90;75.20;;;;;;5060732;28;21023;-72
2021/07/19 06:19:08;;;;;;;28.47;26.87;;;22.00;75.20;;;;;;5060683;28;21110;-72
2021/07/19 06:21:34;;;;;;;30.10;28.20;;;22.10;74.60;;;;;;5058121;28;20896;-72
2021/07/19 06:24:01;;;;;;;31.20;29.40;;;22.10;74.50;;;;;;5052056;28;20812;-72
2021/07/19 06:26:28;;;;;;;29.80;28.10;;;22.10;74.70;;;;;;5061291;28;20474;-75
2021/07/19 06:28:55;;;;;;;30.60;28.60;;;22.30;74.30;;;;;;5060575;28;20481;-75
2021/07/19 06:31:22;;;;;;;29.93;28.13;;;22.20;74.80;;;;;;5060309;28;20463;-72
2021/07/19 06:33:49;;;;;;;29.43;27.63;;;22.30;75.20;;;;;;5061295;28;20460;-72
2021/07/19 06:36:18;;;;;;;31.63;29.63;;;22.50;74.50;;;;;;5058959;28;20478;-72
2021/07/19 06:38:44;;;;;;;29.37;27.67;;;22.50;73.80;;;;;;5043278;28;20482;-72
2021/07/19 06:41:12;;;;;;;31.03;28.83;;;22.50;74.30;;;;;;5046769;28;20550;-72
2021/07/19 06:43:40;;;;;;;32.53;30.60;;;22.60;73.90;;;;;;5042928;28;20455;-72
2021/07/19 06:46:07;;;;;;;29.77;28.13;;;22.70;73.30;;;;;;5047732;28;20598;-73
2021/07/19 06:48:35;;;;;;;29.97;28.07;;;22.80;72.80;;;;;;5043604;28;20463;-72
2021/07/19 06:51:02;;;;;;;32.03;30.13;;;22.90;72.90;;;;;;5038960;28;20458;-72
2021/07/19 06:53:30;;;;;;;29.97;28.00;;;22.90;72.90;;;;;;5045259;28;20470;-76
2021/07/19 06:55:57;;;;;;;30.30;28.50;;;23.00;72.70;;;;;;5048540;28;20471;-73
2021/07/19 06:58:24;;;;;;;29.20;27.50;;;23.10;72.80;;;;;;5047314;28;20454;-72
2021/07/19 07:00:53;;;;;;;30.90;29.20;;;23.10;72.40;;;;;;5047165;28;20455;-72
2021/07/19 07:03:20;;;;;;;31.67;29.70;;;23.30;72.50;;;;;;5049971;28;20472;-73
2021/07/19 07:05:49;;;;;;;36.00;33.20;;;23.30;72.20;;;;;;5046850;28;20477;-73
2021/07/19 07:08:16;;;;;;;31.03;29.23;;;23.40;71.20;;;;;;5047881;28;20470;-75
2021/07/19 07:10:45;;;;;;;30.70;28.53;;;23.30;71.40;;;;;;5045147;28;20455;-75
2021/07/19 07:13:12;;;;;;;33.73;31.47;;;23.30;71.20;;;;;;5039574;28;21113;-75
2021/07/19 07:15:39;;;;;;;30.90;29.00;;;23.30;71.50;;;;;;5046821;28;20487;-76
2021/07/19 07:18:06;;;;;;;31.67;29.57;;;23.30;71.90;;;;;;5044648;28;20489;-75
2021/07/19 07:20:33;;;;;;;31.93;30.13;;;23.40;71.70;;;;;;5047619;28;20960;-75
2021/07/19 07:23:00;;;;;;;31.77;29.87;;;23.50;71.20;;;;;;5047467;28;20463;-76
2021/07/19 07:25:29;;;;;;;32.60;30.50;;;23.60;71.30;;;;;;5045957;28;20490;-74
2021/07/19 07:27:57;;;;;;;32.17;30.20;;;23.60;71.20;;;;;;5046433;28;20606;-72
2021/07/19 07:30:25;;;;;;;30.77;28.83;;;23.80;70.40;;;;;;5045057;28;20458;-73
2021/07/19 07:32:53;;;;;;;31.53;29.63;;;23.60;70.30;;;;;;5040576;28;20465;-73
2021/07/19 07:35:20;;;;;;;31.77;29.77;;;23.60;70.20;;;;;;5046660;28;20495;-73
2021/07/19 07:37:50;;;;;;;30.57;28.67;;;23.60;70.40;;;;;;5044546;28;20451;-74
2021/07/19 07:40:18;;;;;;;31.07;29.23;;;23.60;70.60;;;;;;5042954;28;20458;-75
2021/07/19 07:42:48;;;;;;;31.20;29.40;;;23.60;70.30;;;;;;5040466;28;20460;-71
2021/07/19 07:45:16;;;;;;;31.13;29.33;;;23.70;69.80;;;;;;5047509;28;20629;-75
2021/07/19 07:47:44;;;;;;;33.83;31.90;;;23.60;70.20;;;;;;5045127;28;20480;-75
2021/07/19 07:50:12;;;;;;;31.20;29.07;;;23.60;69.30;;;;;;5045535;28;20459;-75
2021/07/19 07:52:40;;;;;;;31.43;29.63;;;23.70;69.10;;;;;;5044618;28;20467;-74
2021/07/19 07:55:08;;;;;;;30.73;28.93;;;23.80;69.40;;;;;;5042237;28;20498;-75
2021/07/19 07:57:35;;;;;;;34.27;32.37;;;23.90;69.20;;;;;;5040075;28;20459;-72
2021/07/19 08:00:05;;;;;;;33.00;30.70;;;23.90;69.50;;;;;;5044248;28;20467;-72
2021/07/19 08:02:33;;;;;;;32.90;30.90;;;24.00;70.00;;;;;;5040402;28;20463;-72
2021/07/19 08:05:00;;;;;;;32.50;30.60;;;24.10;69.50;;;;;;5047409;28;20483;-74
2021/07/19 08:07:27;;;;;;;33.07;31.07;;;24.20;69.50;;;;;;5042487;28;21202;-74
2021/07/19 08:09:54;;;;;;;32.30;30.20;;;24.20;69.30;;;;;;5043897;28;21103;-75
2021/07/19 08:12:21;;;;;;;32.37;30.10;;;24.30;68.80;;;;;;5047070;28;20996;-75
2021/07/19 08:14:47;;;;;;;34.07;31.83;;;24.40;69.10;;;;;;5045935;28;20465;-75
2021/07/19 08:17:14;;;;;;;33.90;32.00;;;24.50;68.90;;;;;;5046459;28;20470;-77
2021/07/19 08:19:43;;;;;;;32.53;30.43;;;24.70;68.40;;;;;;5045407;28;20463;-76
2021/07/19 08:22:13;;;;;;;33.60;31.20;;;24.60;68.70;;;;;;5043047;28;20454;-76
2021/07/19 08:24:43;;;;;;;33.07;31.17;;;24.30;69.80;;;;;;5042509;28;20447;-78
2021/07/19 08:27:10;;;;;;;34.03;31.93;;;24.40;69.60;;;;;;5038564;28;20835;-75
2021/07/19 08:29:37;;;;;;;34.77;32.67;;;24.50;69.20;;;;;;5041650;28;20463;-75
2021/07/19 08:32:04;;;;;;;33.97;31.77;;;24.40;69.60;;;;;;5044211;28;20558;-75
2021/07/19 08:34:33;;;;;;;34.77;32.57;;;24.40;69.60;;;;;;5044095;28;20548;-74
2021/07/19 08:37:02;;;;;;;33.70;31.53;;;24.40;69.50;;;;;;5045900;28;20483;-76
2021/07/19 08:39:28;;;;;;;34.53;32.07;;;24.40;70.00;;;;;;5045848;28;20811;-77
2021/07/19 08:41:56;;;;;;;33.43;31.30;;;24.40;69.60;;;;;;5040578;28;20451;-76
2021/07/19 08:44:23;;;;;;;35.73;33.33;;;24.70;68.60;;;;;;5044797;28;20451;-77
2021/07/19 08:46:50;;;;;;;34.90;32.70;;;24.60;68.90;;;;;;5043058;28;20844;-76
2021/07/19 08:49:17;;;;;;;33.00;31.10;;;24.80;68.30;;;;;;5040787;28;20462;-75
2021/07/19 08:51:45;;;;;;;32.73;30.83;;;24.80;68.10;;;;;;5039858;28;20470;-76
2021/07/19 08:54:14;;;;;;;34.37;32.00;;;24.80;68.20;;;;;;5041698;28;20463;-77
2021/07/19 08:56:42;;;;;;;34.53;32.53;;;24.90;68.10;;;;;;5046269;28;20829;-76
2021/07/19 08:59:09;;;;;;;35.10;32.90;;;25.00;67.10;;;;;;5044651;28;20447;-77
2021/07/19 09:01:39;;;;;;;33.50;31.47;;;24.90;67.50;;;;;;5039982;28;20467;-77
2021/07/19 09:04:06;;;;;;;34.17;31.83;;;24.80;67.90;;;;;;5040931;28;20459;-77
2021/07/19 09:06:34;;;;;;;33.03;30.90;;;25.00;67.20;;;;;;5044049;28;20483;-77
2021/07/19 09:09:02;;;;;;;33.83;31.60;;;25.00;67.00;;;;;;5047789;28;20554;-77
2021/07/19 09:11:30;;;;;;;36.03;33.87;;;25.00;67.10;;;;;;5045619;28;20467;-76
2021/07/19 09:13:59;;;;;;;34.50;32.10;;;24.90;67.50;;;;;;5045904;28;20451;-76
2021/07/19 09:16:26;;;;;;;36.87;34.63;;;25.00;66.70;;;;;;5042482;28;20483;-76
2021/07/19 09:19:06;;;;;;;34.97;32.80;;;25.10;67.00;;;;;;5043288;28;20754;-77
2021/07/19 09:21:35;;;;;;;34.07;32.07;;;25.10;66.30;;;;;;5040359;28;21310;-78
2021/07/19 09:24:04;;;;;;;33.80;31.90;;;24.90;67.00;;;;;;5045994;28;20537;-72
2021/07/19 09:26:33;;;;;;;32.53;30.53;;;25.10;67.20;;;;;;5047819;28;20559;-74
2021/07/19 09:29:01;;;;;;;33.23;31.23;;;25.30;66.50;;;;;;5046997;28;20542;-73
2021/07/19 09:31:37;;;;;;;36.73;34.63;;;25.20;65.90;;;;;;5041596;28;20542;-74
2021/07/19 09:34:11;;;;;;;34.13;31.90;;;25.00;66.90;;;;;;5042412;28;20867;-75
2021/07/19 09:36:38;;;;;;;35.83;33.50;;;25.20;66.70;;;;;;5042630;28;20485;-74
2021/07/19 09:39:07;;;;;;;34.00;32.00;;;25.10;66.30;;;;;;5038105;28;20477;-75
2021/07/19 09:41:36;;;;;;;36.30;34.10;;;25.20;66.00;;;;;;5044712;28;20545;-73
2021/07/19 09:44:08;;;;;;;34.27;32.27;;;25.00;67.00;;;;;;5034814;28;20484;-72
2021/07/19 09:46:36;;;;;;;36.37;34.03;;;25.00;67.50;;;;;;5043112;28;20471;-72
2021/07/19 09:49:05;;;;;;;35.17;33.10;;;25.30;66.90;;;;;;5039254;28;20462;-73
2021/07/19 09:51:33;;;;;;;35.37;33.27;;;25.70;65.70;;;;;;5036056;28;20981;-73
2021/07/19 09:54:11;;;;;;;42.93;40.83;;;25.80;65.20;;;;;;5046577;28;20998;-74
2021/07/19 09:56:39;;;;;;;35.50;33.40;;;25.70;65.70;;;;;;5045665;28;20470;-73
2021/07/19 09:59:08;;;;;;;35.03;32.97;;;25.70;65.40;;;;;;5044119;28;20562;-75
2021/07/19 10:01:36;;;;;;;36.73;34.40;;;25.70;65.20;;;;;;5045323;28;21083;-77
2021/07/19 10:04:11;;;;;;;34.33;32.33;;;25.60;63.40;;;;;;5045497;28;20948;-72
2021/07/19 10:06:40;;;;;;;34.60;32.50;;;25.60;63.80;;;;;;5043107;28;21374;-76
2021/07/19 10:09:09;;;;;;;36.07;33.57;;;25.30;65.00;;;;;;5047405;28;20470;-81
2021/07/19 10:11:39;;;;;;;32.37;30.47;;;25.10;65.90;;;;;;5046827;28;20549;-72
2021/07/19 10:14:08;;;;;;;35.43;33.33;;;25.40;65.70;;;;;;5048668;28;20517;-73
2021/07/19 10:16:39;;;;;;;35.97;33.87;;;25.50;64.60;;;;;;5050441;28;20477;-73
2021/07/19 10:19:10;;;;;;;36.07;33.70;;;25.80;64.10;;;;;;5047664;28;20470;-72
2021/07/19 10:21:37;;;;;;;33.00;30.90;;;26.10;63.80;;;;;;5050019;28;20459;-73
2021/07/19 10:24:05;;;;;;;33.10;31.07;;;26.30;63.30;;;;;;5049762;28;20505;-73
2021/07/19 10:26:33;;;;;;;36.43;34.20;;;26.50;62.80;;;;;;5047883;28;20486;-74
2021/07/19 10:29:01;;;;;;;33.70;31.53;;;26.50;61.10;;;;;;5048009;28;21181;-73
2021/07/19 10:31:29;;;;;;;34.90;32.50;;;26.30;61.30;;;;;;5050784;28;20446;-73
2021/07/19 10:33:58;;;;;;;34.00;31.83;;;26.50;59.80;;;;;;5050115;28;21176;-74
2021/07/19 10:36:29;;;;;;;35.83;33.70;;;26.40;59.50;;;;;;5048150;28;20471;-73
2021/07/19 10:38:59;;;;;;;35.73;33.63;;;26.60;60.30;;;;;;5049607;28;21017;-73
2021/07/19 10:41:27;;;;;;;34.90;32.70;;;26.60;59.60;;;;;;5048234;28;20447;-72
2021/07/19 10:44:01;;;;;;;34.03;31.97;;;26.70;59.50;;;;;;5045510;28;20459;-72
2021/07/19 10:46:30;;;;;;;32.87;31.00;;;27.00;58.50;;;;;;5046706;28;20817;-72
2021/07/19 10:49:08;;;;;;;35.17;32.83;;;26.80;60.10;;;;;;5046287;28;20567;-74
2021/07/19 10:51:40;;;;;;;35.70;33.60;;;27.00;58.80;;;;;;5046075;28;20472;-72
2021/07/19 10:54:15;;;;;;;35.30;33.07;;;26.90;57.40;;;;;;5050319;28;20199;-72
2021/07/19 10:56:42;;;;;;;33.20;31.20;;;26.60;58.60;;;;;;5046711;28;20981;-72
2021/07/19 10:59:09;;;;;;;32.37;30.47;;;26.70;59.00;;;;;;5048185;28;20983;-72
2021/07/19 11:01:38;;;;;;;33.63;31.50;;;26.50;59.10;;;;;;5047614;28;20455;-72
2021/07/19 11:04:15;;;;;;;31.37;29.57;;;26.60;58.80;;;;;;5047487;28;20490;-72
2021/07/19 11:06:47;;;;;;;34.90;32.70;;;26.60;58.60;;;;;;5044157;28;20886;-72
2021/07/19 11:09:14;;;;;;;34.57;32.47;;;26.60;58.20;;;;;;5049060;28;23160;-72
2021/07/19 11:11:42;;;;;;;33.87;31.77;;;26.50;58.30;;;;;;5049876;28;20466;-72
2021/07/19 11:14:15;;;;;;;36.23;34.33;;;26.60;58.40;;;;;;5045217;28;20474;-72
2021/07/19 11:16:46;;;;;;;34.33;32.33;;;26.70;58.50;;;;;;5045422;28;20489;-71
2021/07/19 11:19:14;;;;;;;35.00;32.90;;;26.60;58.60;;;;;;5045225;28;20481;-71
2021/07/19 11:21:41;;;;;;;34.17;32.00;;;26.40;59.20;;;;;;5047528;28;20833;-70
2021/07/19 11:24:12;;;;;;;31.90;30.10;;;26.30;58.60;;;;;;5049302;28;20456;-69
2021/07/19 11:26:53;;;;;;;33.67;31.37;;;26.10;59.40;;;;;;5043996;28;20541;-70
2021/07/19 11:29:31;;;;;;;34.10;32.10;;;26.30;58.60;;;;;;5044062;28;21113;-70
2021/07/19 11:32:17;;;;;;;33.97;31.40;;;26.40;57.20;;;;;;5042770;28;20464;-69
2021/07/19 11:34:45;;;;;;;35.53;33.63;;;26.50;57.70;;;;;;5044441;28;20997;-69
2021/07/19 11:37:12;;;;;;;31.13;29.13;;;26.70;57.10;;;;;;5047841;28;20550;-69
2021/07/19 11:39:47;;;;;;;30.23;28.43;;;27.00;55.70;;;;;;5038710;28;20467;-69
2021/07/19 11:42:16;;;;;;;32.73;30.10;;;27.00;55.20;;;;;;5045511;28;20450;-69
2021/07/19 11:44:44;;;;;;;34.40;32.40;;;27.00;55.30;;;;;;5044625;28;20874;-72
2021/07/19 11:47:16;;;;;;;31.97;29.83;;;26.90;55.60;;;;;;5043062;28;20534;-71
2021/07/19 11:49:44;;;;;;;35.27;33.17;;;27.10;55.50;;;;;;5041850;28;20467;-71
2021/07/19 11:52:12;;;;;;;32.23;30.20;;;27.30;54.80;;;;;;5048651;28;20596;-71
2021/07/19 11:54:39;;;;;;;35.47;33.57;;;27.30;54.30;;;;;;5046134;28;20459;-69
2021/07/19 11:57:09;;;;;;;32.23;30.23;;;27.30;53.80;;;;;;5043801;28;20964;-70
2021/07/19 11:59:39;;;;;;;31.70;30.00;;;27.20;54.50;;;;;;5039348;28;21003;-69
2021/07/19 12:02:06;;;;;;;32.67;30.57;;;27.20;54.70;;;;;;5041602;28;20833;-70
2021/07/19 12:04:38;;;;;;;30.97;29.23;;;27.30;53.70;;;;;;5047448;28;20451;-68
2021/07/19 12:07:06;;;;;;;34.20;32.27;;;27.50;53.90;;;;;;5048777;28;20497;-69
2021/07/19 12:09:33;;;;;;;35.13;32.90;;;27.70;53.70;;;;;;5042412;28;20594;-70
2021/07/19 12:12:02;;;;;;;31.03;29.03;;;27.70;52.00;;;;;;5046363;28;20820;-70
2021/07/19 12:14:30;;;;;;;31.97;29.90;;;27.60;52.30;;;;;;5041895;28;20458;-70
2021/07/19 12:16:58;;;;;;;32.27;29.63;;;27.80;52.00;;;;;;5046708;28;20486;-71
2021/07/19 12:19:26;;;;;;;32.63;30.73;;;27.80;51.50;;;;;;5044391;28;20467;-69
2021/07/19 12:21:57;;;;;;;31.37;29.47;;;27.70;52.10;;;;;;5046174;28;20546;-73
2021/07/19 12:24:27;;;;;;;34.53;32.13;;;27.90;51.70;;;;;;5044196;28;20466;-72
2021/07/19 12:26:55;;;;;;;30.87;28.83;;;28.00;51.90;;;;;;5043676;28;20519;-72
2021/07/19 12:29:26;;;;;;;32.40;30.30;;;28.00;50.80;;;;;;5044803;28;20490;-71
2021/07/19 12:31:54;;;;;;;32.20;30.23;;;27.80;50.00;;;;;;5047337;28;21256;-72
2021/07/19 12:34:23;;;;;;;32.90;30.80;;;27.70;49.30;;;;;;5042776;28;20544;-72
2021/07/19 12:36:52;;;;;;;35.13;32.83;;;27.50;50.20;;;;;;5047054;28;21123;-71
2021/07/19 12:39:23;;;;;;;35.40;33.50;;;27.70;50.50;;;;;;5040698;28;20463;-71